Time;durP1;ratioP1;P1;durP2;ratioP2;P2;SDS_P1;SDS_P2;PMS_P1;PMS_P2;Temp;Humidity;BMP_temperature;BMP_pressure;BME280_temperature;BME280_humidity;BME280_pressure;Samples;Min_cycle;Max_cycle;Signal;HPM_P1;HPM_P2
2021/03/05 00:00:26;;;;;;;3.67;1.17;;;;;;;1.53;97.16;100951.28;5071053;28;20424;-75
2021/03/05 00:02:52;;;;;;;1.97;1.77;;;;;;;1.52;97.14;100958.53;5069448;28;20185;-75
2021/03/05 00:05:17;;;;;;;3.67;3.07;;;;;;;1.55;96.89;100962.63;5069748;28;20182;-75
2021/03/05 00:07:43;;;;;;;3.80;2.30;;;;;;;1.58;97.20;100962.97;5067443;28;20441;-75
2021/03/05 00:10:11;;;;;;;2.10;1.93;;;;;;;1.55;96.41;100966.13;5065673;28;20186;-75
2021/03/05 00:12:37;;;;;;;0.93;0.63;;;;;;;1.54;96.47;100967.19;5070548;28;20182;-75
2021/03/05 00:15:04;;;;;;;3.07;2.87;;;;;;;1.57;96.51;100971.28;5070551;28;20425;-76
2021/03/05 00:17:30;;;;;;;2.37;2.17;;;;;;;1.52;96.16;100973.88;5070296;28;20540;-75
2021/03/05 00:19:55;;;;;;;2.70;2.47;;;;;;;1.54;95.65;100975.28;5071211;28;20427;-76
2021/03/05 00:22:20;;;;;;;3.30;3.00;;;;;;;1.54;95.27;100977.97;5070635;28;20201;-75
2021/03/05 00:24:46;;;;;;;2.63;2.43;;;;;;;1.52;95.05;100974.69;5070179;28;20378;-75
2021/03/05 00:27:11;;;;;;;2.83;2.63;;;;;;;1.56;95.81;100985.81;5068182;28;20197;-76
2021/03/05 00:29:36;;;;;;;2.70;2.10;;;;;;;1.56;95.08;100993.88;5059792;28;20206;-76
2021/03/05 00:32:02;;;;;;;2.57;2.37;;;;;;;1.53;95.42;100986.28;5070300;28;20206;-76
2021/03/05 00:34:27;;;;;;;2.07;1.57;;;;;;;1.52;95.80;100998.94;5070248;28;20174;-75
2021/03/05 00:36:53;;;;;;;2.77;2.53;;;;;;;1.57;95.92;100996.31;5069503;28;20278;-76
2021/03/05 00:39:18;;;;;;;1.30;1.30;;;;;;;1.55;95.19;100998.44;5070149;28;20184;-75
2021/03/05 00:41:44;;;;;;;1.67;1.57;;;;;;;1.57;95.16;101001.72;5070484;28;20585;-75
2021/03/05 00:44:09;;;;;;;2.90;2.67;;;;;;;1.57;95.32;101004.41;5070146;28;20189;-75
2021/03/05 00:46:34;;;;;;;2.50;1.73;;;;;;;1.56;94.67;101005.47;5069355;28;20186;-75
2021/03/05 00:49:00;;;;;;;3.50;2.43;;;;;;;1.53;95.10;101002.44;5069910;28;20174;-75
2021/03/05 00:51:26;;;;;;;2.33;2.23;;;;;;;1.55;95.03;101011.09;5070047;28;20190;-75
2021/03/05 00:53:51;;;;;;;2.67;2.40;;;;;;;1.51;94.72;101021.53;5070158;28;20211;-76
2021/03/05 00:56:17;;;;;;;4.33;3.97;;;;;;;1.51;94.83;101009.94;5069590;28;20175;-75
2021/03/05 00:58:42;;;;;;;3.23;2.90;;;;;;;1.48;94.76;101022.00;5068975;28;20186;-75
2021/03/05 01:01:08;;;;;;;1.60;1.60;;;;;;;1.49;94.66;101018.25;5050024;28;20282;-74
2021/03/05 01:03:34;;;;;;;1.83;1.63;;;;;;;1.47;94.34;101020.38;5049776;28;20224;-75
2021/03/05 01:05:59;;;;;;;3.93;3.53;;;;;;;1.41;94.32;101018.59;5049901;28;20176;-75
2021/03/05 01:08:24;;;;;;;1.80;1.63;;;;;;;1.36;94.10;101018.50;5049740;28;20182;-75
2021/03/05 01:10:50;;;;;;;2.70;2.47;;;;;;;1.36;94.30;101018.50;5053186;28;20540;-75
2021/03/05 01:13:16;;;;;;;3.87;2.63;;;;;;;1.32;94.15;101022.72;5053777;28;20183;-75
2021/03/05 01:15:41;;;;;;;1.63;1.00;;;;;;;1.31;94.38;101021.91;5052430;28;20197;-75
2021/03/05 01:18:07;;;;;;;4.27;2.43;;;;;;;1.31;94.44;101029.19;5052969;28;20294;-75
2021/03/05 01:20:33;;;;;;;7.00;2.67;;;;;;;1.26;94.12;101029.03;5053315;28;20179;-75
2021/03/05 01:22:58;;;;;;;1.73;1.30;;;;;;;1.28;94.18;101032.31;5053529;28;20271;-74
2021/03/05 01:25:26;;;;;;;2.97;2.73;;;;;;;1.26;94.55;101029.03;5061236;28;20189;-74
2021/03/05 01:27:52;;;;;;;2.00;1.90;;;;;;;1.26;94.52;101031.72;5072700;28;20266;-75
2021/03/05 01:30:18;;;;;;;2.53;2.33;;;;;;;1.22;93.86;101042.16;5073038;28;20536;-76
2021/03/05 01:32:44;;;;;;;2.77;2.57;;;;;;;1.23;94.34;101038.41;5073246;28;20421;-76
2021/03/05 01:35:14;;;;;;;5.60;2.07;;;;;;;1.23;94.06;101045.66;5073365;28;20466;-75
2021/03/05 01:37:39;;;;;;;3.17;2.10;;;;;;;1.20;94.53;101041.56;5072441;28;20512;-76
2021/03/05 01:40:07;;;;;;;4.23;3.37;;;;;;;1.12;95.03;101052.69;5073309;28;20425;-74
2021/03/05 01:42:33;;;;;;;1.70;1.60;;;;;;;1.14;95.46;101053.25;5073040;28;20653;-75
2021/03/05 01:44:58;;;;;;;2.17;1.53;;;;;;;1.12;95.10;101044.59;5073235;28;20449;-75
2021/03/05 01:47:24;;;;;;;1.60;1.50;;;;;;;1.09;94.63;101053.16;5072696;28;20253;-75
2021/03/05 01:49:50;;;;;;;2.37;2.17;;;;;;;1.00;94.40;101046.47;5073364;28;20261;-75
2021/03/05 01:52:15;;;;;;;1.50;1.40;;;;;;;1.06;94.46;101046.38;5073317;28;20511;-76
2021/03/05 01:54:41;;;;;;;1.43;1.20;;;;;;;1.02;94.09;101049.78;5073251;28;20174;-75
2021/03/05 01:57:06;;;;;;;2.63;2.43;;;;;;;0.86;93.61;101057.44;5072571;28;20209;-76
2021/03/05 01:59:32;;;;;;;4.93;2.07;;;;;;;0.84;93.87;101061.44;5072761;28;20174;-75
2021/03/05 02:02:00;;;;;;;1.80;1.70;;;;;;;0.83;94.51;101065.97;5072580;28;20190;-75
2021/03/05 02:04:25;;;;;;;1.93;1.80;;;;;;;0.79;94.32;101064.81;5072997;28;20669;-75
2021/03/05 02:06:50;;;;;;;1.57;1.47;;;;;;;0.71;94.59;101061.63;5072326;28;20809;-75
2021/03/05 02:09:16;;;;;;;3.10;1.97;;;;;;;0.65;95.00;101066.06;5073008;28;20185;-75
2021/03/05 02:11:41;;;;;;;1.80;1.70;;;;;;;0.59;94.67;101065.13;5072921;28;20199;-75
2021/03/05 02:14:08;;;;;;;1.30;1.20;;;;;;;0.58;94.56;101068.06;5072651;28;20293;-76
2021/03/05 02:16:39;;;;;;;1.30;1.20;;;;;;;0.52;94.42;101072.47;5072081;28;20230;-75
2021/03/05 02:19:55;;;;;;;1.80;1.53;;;;;;;0.43;93.97;101081.06;5072550;28;20433;-76
2021/03/05 02:22:39;;;;;;;0.40;0.40;;;;;;;0.39;93.33;101088.78;5070871;28;20475;-75
2021/03/05 02:25:22;;;;;;;1.50;1.40;;;;;;;0.37;93.29;101092.75;5072609;28;20397;-75
2021/03/05 02:28:29;;;;;;;0.30;0.30;;;;;;;0.38;93.43;101100.59;5072037;28;20431;-75
2021/03/05 02:31:08;;;;;;;0.87;0.87;;;;;;;0.29;92.37;101099.28;5072612;28;20413;-75
2021/03/05 02:33:55;;;;;;;0.70;0.70;;;;;;;0.23;92.71;101105.53;5072131;28;20773;-75
2021/03/05 02:36:28;;;;;;;0.93;0.93;;;;;;;0.22;92.74;101109.28;5071853;28;20413;-75
2021/03/05 02:39:12;;;;;;;4.23;1.83;;;;;;;0.13;91.83;101118.69;5072154;28;20440;-75
2021/03/05 02:41:40;;;;;;;5.93;1.43;;;;;;;0.17;92.74;101123.41;5071793;28;20420;-75
2021/03/05 02:44:08;;;;;;;0.60;0.50;;;;;;;0.07;91.66;101123.09;5072142;28;20457;-75
2021/03/05 02:46:35;;;;;;;0.23;0.23;;;;;;;0.02;91.54;101119.47;5071275;28;20463;-75
2021/03/05 02:49:03;;;;;;;0.37;0.37;;;;;;;-0.06;91.75;101121.38;5071739;28;20977;-75
2021/03/05 02:51:32;;;;;;;0.47;0.47;;;;;;;-0.08;91.66;101122.66;5072290;28;20771;-76
2021/03/05 02:54:00;;;;;;;0.10;0.10;;;;;;;-0.12;91.86;101125.00;5072412;28;20503;-75
2021/03/05 02:56:28;;;;;;;0.67;0.63;;;;;;;-0.15;91.17;101140.69;5071397;28;20455;-75
2021/03/05 02:58:55;;;;;;;0.40;0.30;;;;;;;-0.25;91.41;101135.06;5071755;28;20463;-75
2021/03/05 03:01:24;;;;;;;0.33;0.33;;;;;;;-0.34;91.46;101143.38;5071728;28;20417;-75
2021/03/05 03:03:54;;;;;;;0.20;0.20;;;;;;;-0.32;91.51;101148.53;5071803;28;20451;-76
2021/03/05 03:06:21;;;;;;;1.57;1.03;;;;;;;-0.21;91.34;101144.28;5070678;28;20420;-75
2021/03/05 03:08:47;;;;;;;5.83;0.30;;;;;;;-0.35;91.36;101148.97;5071042;28;20809;-75
2021/03/05 03:11:13;;;;;;;0.50;0.50;;;;;;;-0.34;91.50;101156.81;5071618;28;20456;-75
2021/03/05 03:13:40;;;;;;;0.50;0.50;;;;;;;-0.40;91.29;101151.50;5071420;28;20428;-75
2021/03/05 03:16:07;;;;;;;0.40;0.40;;;;;;;-0.37;91.32;101151.88;5071034;28;20409;-75
2021/03/05 03:18:36;;;;;;;0.00;0.00;;;;;;;-0.31;91.58;101158.22;5071303;28;20479;-75
2021/03/05 03:21:03;;;;;;;5.40;0.70;;;;;;;-0.34;91.55;101164.03;5070895;28;20457;-75
2021/03/05 03:23:28;;;;;;;1.13;0.40;;;;;;;-0.35;91.46;101173.94;5061298;28;20893;-75
2021/03/05 03:25:55;;;;;;;0.87;0.67;;;;;;;-0.30;91.36;101173.28;5051044;28;20465;-75
2021/03/05 03:28:20;;;;;;;2.17;1.10;;;;;;;-0.35;91.14;101178.50;5052491;28;20184;-75
2021/03/05 03:30:46;;;;;;;0.67;0.67;;;;;;;-0.43;90.99;101174.25;5070740;28;20439;-75
2021/03/05 03:33:12;;;;;;;0.57;0.57;;;;;;;-0.45;91.39;101179.00;5070569;28;20202;-75
2021/03/05 03:35:38;;;;;;;0.60;0.60;;;;;;;-0.44;91.68;101175.28;5070922;28;20409;-75
2021/03/05 03:38:07;;;;;;;0.80;0.70;;;;;;;-0.37;91.20;101191.31;5070360;28;20500;-74
2021/03/05 03:40:34;;;;;;;0.93;0.93;;;;;;;-0.40;91.26;101189.91;5070674;28;20424;-75
2021/03/05 03:43:00;;;;;;;1.07;0.97;;;;;;;-0.38;90.80;101195.06;5070568;28;20425;-75
2021/03/05 03:45:25;;;;;;;1.83;1.47;;;;;;;-0.40;91.10;101197.16;5070950;28;20420;-75
2021/03/05 03:47:51;;;;;;;0.90;0.90;;;;;;;-0.42;91.31;101200.06;5069555;28;20224;-75
2021/03/05 03:50:42;;;;;;;5.63;0.50;;;;;;;-0.57;91.17;101212.97;5071265;28;20537;-75
2021/03/05 03:53:22;;;;;;;0.73;0.40;;;;;;;-0.63;91.54;101221.88;5070617;28;20425;-75
2021/03/05 03:55:55;;;;;;;0.67;0.67;;;;;;;-0.63;91.73;101225.41;5070660;28;20420;-75
2021/03/05 03:58:22;;;;;;;1.23;0.57;;;;;;;-0.60;91.83;101233.00;5070391;28;20483;-76
2021/03/05 04:00:49;;;;;;;0.43;0.43;;;;;;;-0.65;91.92;101238.22;5070543;28;20417;-76
2021/03/05 04:03:17;;;;;;;0.67;0.67;;;;;;;-0.58;92.04;101237.31;5070538;28;20417;-75
2021/03/05 04:05:44;;;;;;;0.60;0.40;;;;;;;-0.61;92.10;101238.59;5070662;28;20413;-75
2021/03/05 04:08:12;;;;;;;0.43;0.43;;;;;;;-0.55;92.16;101245.78;5070083;28;20432;-75
2021/03/05 04:10:40;;;;;;;3.83;1.87;;;;;;;-0.72;91.94;101244.69;5070557;28;20429;-75
2021/03/05 04:13:06;;;;;;;0.77;0.77;;;;;;;-0.65;91.61;101245.44;5070696;28;20443;-75
2021/03/05 04:15:31;;;;;;;1.07;0.53;;;;;;;-0.71;92.13;101249.00;5070714;28;20417;-75
2021/03/05 04:17:57;;;;;;;0.40;0.40;;;;;;;-0.78;92.29;101246.34;5070070;28;20352;-74
2021/03/05 04:20:25;;;;;;;0.13;0.13;;;;;;;-0.73;92.80;101246.50;5069203;28;20244;-75
2021/03/05 04:22:51;;;;;;;0.17;0.17;;;;;;;-0.80;92.60;101253.78;5070680;28;20182;-75
2021/03/05 04:25:17;;;;;;;0.30;0.30;;;;;;;-0.67;92.33;101255.56;5070814;28;20781;-75
2021/03/05 04:27:43;;;;;;;0.10;0.10;;;;;;;-0.61;92.40;101252.00;5069741;28;20420;-76
2021/03/05 04:30:09;;;;;;;0.60;0.60;;;;;;;-0.66;92.35;101252.66;5070683;28;20166;-75
2021/03/05 04:32:34;;;;;;;0.50;0.50;;;;;;;-0.54;92.46;101258.16;5070500;28;20752;-75
2021/03/05 04:35:00;;;;;;;5.60;0.50;;;;;;;-0.60;91.55;101259.84;5070218;28;20442;-75
2021/03/05 04:37:25;;;;;;;0.87;0.80;;;;;;;-0.90;92.21;101256.94;5070026;28;20297;-76
2021/03/05 04:39:51;;;;;;;0.47;0.47;;;;;;;-0.87;92.38;101257.53;5070312;28;20209;-75
2021/03/05 04:42:16;;;;;;;0.10;0.10;;;;;;;-0.85;91.83;101267.03;5070123;28;20265;-75
2021/03/05 04:44:41;;;;;;;0.93;0.37;;;;;;;-0.91;92.70;101267.88;5072360;28;20243;-75
2021/03/05 04:47:07;;;;;;;0.40;0.30;;;;;;;-0.97;92.45;101263.41;5073994;28;20175;-76
2021/03/05 04:49:32;;;;;;;0.60;0.60;;;;;;;-1.05;92.80;101266.31;5074473;28;20178;-76
2021/03/05 04:51:57;;;;;;;0.10;0.10;;;;;;;-1.01;93.38;101270.22;5076743;28;20170;-76
2021/03/05 04:54:23;;;;;;;0.53;0.53;;;;;;;-0.91;93.10;101274.06;5075312;28;20179;-75
2021/03/05 04:56:48;;;;;;;0.30;0.30;;;;;;;-0.83;92.22;101275.69;5073700;28;20281;-75
2021/03/05 04:59:13;;;;;;;0.40;0.40;;;;;;;-0.72;92.93;101271.50;5074479;28;20258;-76
2021/03/05 05:01:39;;;;;;;1.07;1.07;;;;;;;-0.83;91.75;101270.31;5074481;28;20202;-76
2021/03/05 05:04:04;;;;;;;2.30;1.07;;;;;;;-0.91;91.79;101284.81;5074389;28;20175;-76
2021/03/05 05:06:29;;;;;;;1.17;1.13;;;;;;;-1.08;92.36;101285.53;5073751;28;20179;-75
2021/03/05 05:08:55;;;;;;;0.40;0.40;;;;;;;-0.85;92.34;101293.88;5073944;28;20492;-75
2021/03/05 05:11:20;;;;;;;0.37;0.37;;;;;;;-0.72;91.86;101293.78;5073797;28;20445;-76
2021/03/05 05:13:46;;;;;;;0.40;0.40;;;;;;;-0.61;91.17;101300.31;5074117;28;20166;-76
2021/03/05 05:16:11;;;;;;;0.00;0.00;;;;;;;-0.56;91.33;101294.31;5073544;28;20206;-76
2021/03/05 05:18:36;;;;;;;1.00;1.00;;;;;;;-0.53;90.75;101309.97;5073790;28;20700;-75
2021/03/05 05:21:02;;;;;;;0.47;0.30;;;;;;;-0.49;90.23;101298.56;5073755;28;20225;-76
2021/03/05 05:23:27;;;;;;;1.93;0.87;;;;;;;-0.54;90.07;101308.31;5073854;28;20174;-76
2021/03/05 05:25:53;;;;;;;0.30;0.30;;;;;;;-0.52;90.08;101308.94;5074203;28;20192;-75
2021/03/05 05:28:18;;;;;;;0.37;0.20;;;;;;;-0.65;90.18;101302.59;5061216;28;20191;-75
2021/03/05 05:30:43;;;;;;;0.63;0.47;;;;;;;-0.76;89.72;101316.69;5053475;28;20203;-75
2021/03/05 05:33:09;;;;;;;0.00;0.00;;;;;;;-0.77;90.47;101323.09;5053717;28;20661;-76
2021/03/05 05:35:34;;;;;;;0.67;0.37;;;;;;;-0.71;90.83;101322.25;5053506;28;20167;-75
2021/03/05 05:37:59;;;;;;;0.00;0.00;;;;;;;-0.69;90.30;101325.56;5052843;28;20635;-75
2021/03/05 05:40:26;;;;;;;0.30;0.30;;;;;;;-0.70;90.59;101323.09;5053379;28;20299;-75
2021/03/05 05:42:51;;;;;;;0.30;0.30;;;;;;;-0.78;90.48;101331.38;5053136;28;20183;-75
2021/03/05 05:45:17;;;;;;;2.30;2.23;;;;;;;-0.75;90.58;101341.66;5053410;28;20770;-75
2021/03/05 05:47:43;;;;;;;0.20;0.20;;;;;;;-0.84;90.32;101341.09;5052966;28;20182;-76
2021/03/05 05:50:09;;;;;;;0.10;0.10;;;;;;;-0.86;90.30;101351.22;5053605;28;20182;-75
2021/03/05 05:52:35;;;;;;;0.00;0.00;;;;;;;-0.78;90.86;101356.34;5053144;28;20921;-75
2021/03/05 05:55:03;;;;;;;0.60;0.60;;;;;;;-0.72;90.11;101355.50;5052685;28;20421;-75
2021/03/05 05:57:30;;;;;;;0.53;0.53;;;;;;;-0.74;89.76;101362.09;5052681;28;20206;-75
2021/03/05 05:59:59;;;;;;;0.23;0.23;;;;;;;-0.77;89.09;101360.66;5053158;28;20424;-75
2021/03/05 06:02:26;;;;;;;0.10;0.07;;;;;;;-0.84;89.38;101359.88;5053126;28;20422;-75
2021/03/05 06:04:55;;;;;;;0.10;0.10;;;;;;;-0.84;89.42;101365.25;5053368;28;20429;-76
2021/03/05 06:07:24;;;;;;;0.50;0.20;;;;;;;-0.83;89.52;101369.56;5052392;28;20583;-75
2021/03/05 06:09:50;;;;;;;0.20;0.20;;;;;;;-0.85;89.57;101368.97;5052846;28;20430;-76
2021/03/05 06:12:16;;;;;;;5.30;0.77;;;;;;;-0.92;89.21;101371.66;5052862;28;20418;-75
2021/03/05 06:14:43;;;;;;;0.20;0.10;;;;;;;-0.97;89.35;101376.03;5052759;28;20913;-74
2021/03/05 06:17:08;;;;;;;0.10;0.10;;;;;;;-1.01;89.44;101389.03;5052000;28;20206;-75
2021/03/05 06:19:34;;;;;;;0.20;0.20;;;;;;;-1.13;89.80;101384.53;5052836;28;20425;-75
2021/03/05 06:22:00;;;;;;;0.43;0.43;;;;;;;-1.24;90.03;101384.16;5052954;28;20480;-75
2021/03/05 06:24:28;;;;;;;0.07;0.07;;;;;;;-1.33;90.57;101396.13;5052746;28;20565;-76
2021/03/05 06:26:58;;;;;;;0.10;0.10;;;;;;;-1.33;90.34;101401.47;5051925;28;20551;-75
2021/03/05 06:29:47;;;;;;;0.00;0.00;;;;;;;-1.38;90.62;101403.16;5052525;28;20418;-75
2021/03/05 06:32:15;;;;;;;9.13;0.93;;;;;;;-1.45;90.71;101405.84;5052779;28;20758;-75
2021/03/05 06:34:46;;;;;;;0.43;0.43;;;;;;;-1.47;90.90;101415.13;5052729;28;20440;-75
2021/03/05 06:37:13;;;;;;;0.00;0.00;;;;;;;-1.54;91.42;101421.31;5051882;28;20834;-75
2021/03/05 06:39:38;;;;;;;0.73;0.40;;;;;;;-1.55;91.65;101429.56;5052393;28;20417;-74
2021/03/05 06:42:14;;;;;;;0.00;0.00;;;;;;;-1.54;91.70;101433.88;5052029;28;20458;-75
2021/03/05 06:44:42;;;;;;;0.23;0.23;;;;;;;-1.60;91.59;101440.06;5052337;28;20250;-74
2021/03/05 06:47:13;;;;;;;0.83;0.83;;;;;;;-1.55;91.63;101438.44;5051891;28;20429;-74
2021/03/05 06:49:39;;;;;;;0.77;0.70;;;;;;;-1.55;91.68;101446.47;5052168;28;20424;-75
2021/03/05 06:52:05;;;;;;;0.20;0.20;;;;;;;-1.55;91.86;101451.81;5051845;28;20913;-79
2021/03/05 06:54:36;;;;;;;0.20;0.20;;;;;;;-1.54;92.24;101448.09;5051741;28;20413;-74
2021/03/05 06:57:04;;;;;;;0.27;0.27;;;;;;;-1.56;92.07;101455.53;5051094;28;20449;-75
2021/03/05 06:59:43;;;;;;;0.00;0.00;;;;;;;-1.51;92.18;101468.31;5051542;28;20410;-75
2021/03/05 07:02:16;;;;;;;0.10;0.10;;;;;;;-1.47;91.97;101453.44;5051775;28;20422;-75
2021/03/05 07:04:49;;;;;;;0.07;0.07;;;;;;;-1.44;91.89;101468.31;5051630;28;20459;-76
2021/03/05 07:07:18;;;;;;;0.00;0.00;;;;;;;-1.37;91.40;101469.13;5050195;28;20531;-75
2021/03/05 07:09:53;;;;;;;0.00;0.00;;;;;;;-1.37;91.43;101469.94;5051180;28;20418;-75
2021/03/05 07:12:22;;;;;;;0.00;0.00;;;;;;;-1.32;91.25;101478.19;5051421;28;20409;-74
2021/03/05 07:14:49;;;;;;;0.00;0.00;;;;;;;-1.20;90.91;101491.78;5051313;28;20414;-74
2021/03/05 07:17:17;;;;;;;0.50;0.33;;;;;;;-1.22;90.79;101486.63;5050618;28;20465;-74
2021/03/05 07:19:42;;;;;;;0.20;0.20;;;;;;;-1.25;90.41;101494.28;5051237;28;20902;-74
2021/03/05 07:22:10;;;;;;;0.10;0.10;;;;;;;-1.21;90.45;101499.00;5051240;28;20417;-74
2021/03/05 07:24:39;;;;;;;0.20;0.20;;;;;;;-1.15;90.89;101504.59;5051179;28;20298;-74
2021/03/05 07:27:07;;;;;;;0.20;0.20;;;;;;;-0.99;91.09;101507.66;5050812;28;20414;-75
2021/03/05 07:29:43;;;;;;;0.07;0.07;;;;;;;-0.81;90.37;101501.63;5050180;28;20440;-74
2021/03/05 07:32:17;;;;;;;0.27;0.27;;;;;;;-0.87;90.11;101497.09;5051515;28;20518;-74
2021/03/05 07:35:04;;;;;;;1.43;1.43;;;;;;;-1.02;90.16;101508.06;5062722;28;20920;-75
2021/03/05 07:37:39;;;;;;;0.30;0.30;;;;;;;-0.81;89.76;101509.69;5070280;28;20468;-75
2021/03/05 07:40:08;;;;;;;0.00;0.00;;;;;;;-0.68;89.27;101515.00;5069514;28;20424;-75
2021/03/05 07:42:33;;;;;;;0.00;0.00;;;;;;;-0.51;88.77;101517.22;5069412;28;20467;-75
2021/03/05 07:45:02;;;;;;;3.93;0.70;;;;;;;-0.36;89.05;101520.47;5070866;28;20427;-75
2021/03/05 07:47:31;;;;;;;0.37;0.20;;;;;;;-0.40;87.74;101530.81;5070114;28;20599;-75
2021/03/05 07:50:00;;;;;;;0.63;0.63;;;;;;;-0.39;87.31;101527.09;5070556;28;20452;-73
2021/03/05 07:52:26;;;;;;;0.70;0.70;;;;;;;-0.43;87.43;101535.78;5070474;28;20424;-74
2021/03/05 07:54:52;;;;;;;3.30;0.80;;;;;;;-0.35;87.87;101538.22;5070658;28;20416;-74
2021/03/05 07:57:20;;;;;;;0.00;0.00;;;;;;;-0.32;87.33;101535.94;5070146;28;20202;-74
2021/03/05 07:59:52;;;;;;;1.17;0.93;;;;;;;-0.23;86.61;101544.59;5070467;28;20700;-75
2021/03/05 08:02:19;;;;;;;0.80;0.80;;;;;;;-0.17;86.24;101541.03;5070137;28;20421;-74
2021/03/05 08:04:51;;;;;;;0.00;0.00;;;;;;;-0.31;86.14;101540.28;5070576;28;20460;-76
2021/03/05 08:07:17;;;;;;;0.50;0.17;;;;;;;-0.19;86.81;101544.97;5069754;28;20441;-75
2021/03/05 08:09:43;;;;;;;0.43;0.43;;;;;;;-0.20;86.18;101546.03;5070392;28;20512;-73
2021/03/05 08:15:07;;;;;;;0.30;0.30;;;;;;;-0.35;86.33;101554.34;5070622;28;20661;-76
2021/03/05 08:17:38;;;;;;;1.10;1.03;;;;;;;-0.21;87.24;101555.13;5069475;28;21036;-76
2021/03/05 08:20:04;;;;;;;0.13;0.13;;;;;;;-0.09;85.78;101551.56;5070258;28;20429;-75
2021/03/05 08:22:31;;;;;;;0.20;0.20;;;;;;;-0.13;85.92;101552.19;5070014;28;20439;-75
2021/03/05 08:25:22;;;;;;;0.00;0.00;;;;;;;-0.17;86.04;101559.84;5070031;28;20413;-74
2021/03/05 08:27:48;;;;;;;0.00;0.00;;;;;;;-0.17;86.16;101567.91;5069542;28;20424;-75
2021/03/05 08:30:19;;;;;;;0.30;0.30;;;;;;;-0.13;86.48;101571.00;5070109;28;20413;-75
2021/03/05 08:32:54;;;;;;;0.00;0.00;;;;;;;-0.23;86.36;101563.38;5070078;28;20155;-75
2021/03/05 08:35:29;;;;;;;0.40;0.40;;;;;;;-0.25;86.50;101576.22;5070065;28;20968;-76
2021/03/05 08:38:09;;;;;;;0.83;0.40;;;;;;;-0.21;88.06;101573.91;5069324;28;20677;-76
2021/03/05 08:40:36;;;;;;;0.43;0.43;;;;;;;-0.12;87.66;101572.66;5070024;28;20515;-76
2021/03/05 08:43:10;;;;;;;0.63;0.63;;;;;;;-0.08;87.72;101582.75;5069671;28;20457;-76
2021/03/05 08:45:44;;;;;;;0.50;0.50;;;;;;;-0.01;87.08;101583.53;5068765;28;20527;-76
2021/03/05 08:48:11;;;;;;;0.60;0.60;;;;;;;0.05;86.27;101578.34;5068694;28;20464;-75
2021/03/05 08:50:38;;;;;;;0.17;0.17;;;;;;;-0.03;85.65;101574.84;5069638;28;20417;-76
2021/03/05 08:53:09;;;;;;;0.90;0.90;;;;;;;-0.02;86.23;101579.19;5069756;28;20451;-76
2021/03/05 08:55:36;;;;;;;0.97;0.97;;;;;;;0.14;86.51;101579.75;5070035;28;20470;-76
2021/03/05 08:58:02;;;;;;;0.40;0.40;;;;;;;0.06;86.19;101583.50;5068962;28;20555;-76
2021/03/05 09:00:32;;;;;;;1.23;0.87;;;;;;;0.11;86.42;101580.19;5069868;28;20451;-76
2021/03/05 09:03:12;;;;;;;0.33;0.33;;;;;;;0.16;86.41;101591.13;5069847;28;20413;-76
2021/03/05 09:05:40;;;;;;;0.00;0.00;;;;;;;0.15;86.07;101593.00;5069895;28;20427;-76
2021/03/05 09:08:10;;;;;;;1.23;1.13;;;;;;;0.26;85.44;101589.59;5069128;28;20967;-77
2021/03/05 09:10:39;;;;;;;0.43;0.43;;;;;;;0.35;85.51;101592.06;5069325;28;20799;-76
2021/03/05 09:13:04;;;;;;;0.50;0.50;;;;;;;0.34;85.18;101583.16;5069555;28;20420;-76
2021/03/05 09:15:44;;;;;;;2.00;0.90;;;;;;;0.33;85.79;101594.97;5069829;28;20749;-76
2021/03/05 09:18:19;;;;;;;0.50;0.50;;;;;;;0.34;84.90;101591.22;5068909;28;20213;-77
2021/03/05 09:20:46;;;;;;;1.07;1.07;;;;;;;0.38;85.28;101602.38;5065711;28;20633;-77
2021/03/05 09:23:17;;;;;;;0.13;0.13;;;;;;;0.32;85.43;101600.56;5058265;28;20940;-76
2021/03/05 09:25:50;;;;;;;0.93;0.93;;;;;;;0.32;85.29;101605.94;5056680;28;20798;-76
2021/03/05 09:28:16;;;;;;;1.80;1.70;;;;;;;0.37;84.93;101614.97;5062848;28;20933;-76
2021/03/05 09:30:47;;;;;;;0.70;0.70;;;;;;;0.55;85.32;101612.38;5071154;28;20778;-76
2021/03/05 09:33:12;;;;;;;0.83;0.83;;;;;;;0.67;84.48;101617.09;5073522;28;20971;-76
2021/03/05 09:35:37;;;;;;;0.60;0.60;;;;;;;0.79;83.92;101620.72;5073251;28;20516;-76
2021/03/05 09:38:03;;;;;;;1.03;0.83;;;;;;;0.97;83.76;101617.28;5072895;28;20210;-76
2021/03/05 09:40:29;;;;;;;1.43;1.33;;;;;;;1.06;82.76;101624.06;5070359;28;20218;-76
2021/03/05 09:42:57;;;;;;;1.80;1.70;;;;;;;1.07;82.78;101626.53;5071838;28;20228;-76
2021/03/05 09:45:36;;;;;;;2.77;2.20;;;;;;;0.79;82.00;101626.09;5071936;28;20179;-76
2021/03/05 09:48:02;;;;;;;1.17;1.10;;;;;;;0.48;82.40;101633.13;5072937;28;20420;-76
2021/03/05 09:50:28;;;;;;;3.73;1.93;;;;;;;0.71;82.38;101629.03;5072967;28;20456;-77
2021/03/05 09:52:53;;;;;;;0.77;0.77;;;;;;;0.93;82.93;101624.97;5073345;28;20498;-76
2021/03/05 09:55:31;;;;;;;0.37;0.37;;;;;;;1.35;82.88;101636.03;5073349;28;20627;-77
2021/03/05 09:58:17;;;;;;;0.60;0.60;;;;;;;1.34;80.60;101647.84;5073409;28;20277;-76
2021/03/05 10:00:42;;;;;;;1.70;1.60;;;;;;;0.81;80.69;101645.53;5070818;28;20757;-77
2021/03/05 10:03:09;;;;;;;1.80;1.70;;;;;;;0.80;81.58;101638.50;5072965;28;20440;-76
2021/03/05 10:05:37;;;;;;;1.80;1.70;;;;;;;0.88;81.86;101638.25;5072519;28;20178;-77
2021/03/05 10:08:19;;;;;;;2.97;2.27;;;;;;;1.16;81.42;101641.38;5072083;28;20413;-76
2021/03/05 10:10:57;;;;;;;1.00;1.00;;;;;;;1.41;80.67;101644.03;5065095;28;20932;-76
2021/03/05 10:13:41;;;;;;;1.60;1.50;;;;;;;1.14;79.12;101648.81;5068835;28;20432;-77
2021/03/05 10:16:30;;;;;;;1.70;1.53;;;;;;;1.42;79.69;101663.69;5072137;28;20944;-76
2021/03/05 10:19:04;;;;;;;1.80;1.30;;;;;;;1.52;79.66;101655.13;5071278;28;20476;-77
2021/03/05 10:21:31;;;;;;;3.47;2.00;;;;;;;1.31;79.29;101654.50;5072477;28;20510;-76
2021/03/05 10:23:57;;;;;;;1.20;1.10;;;;;;;1.71;78.99;101663.00;5072587;28;20908;-76
2021/03/05 10:26:26;;;;;;;2.63;1.93;;;;;;;1.92;78.17;101672.53;5072187;28;20622;-77
2021/03/05 10:28:58;;;;;;;2.50;2.30;;;;;;;2.03;76.99;101665.59;5072540;28;20663;-76
2021/03/05 10:31:42;;;;;;;2.10;1.90;;;;;;;1.41;76.23;101680.91;5072405;28;20441;-77
2021/03/05 10:34:31;;;;;;;2.23;2.13;;;;;;;1.53;77.32;101683.69;5072463;28;20424;-78
2021/03/05 10:37:01;;;;;;;6.20;2.30;;;;;;;1.46;76.99;101686.47;5072172;28;21002;-78
2021/03/05 10:39:31;;;;;;;2.43;2.23;;;;;;;1.73;77.14;101687.84;5072491;28;20823;-77
2021/03/05 10:41:59;;;;;;;0.60;0.60;;;;;;;1.99;77.12;101704.78;5072373;28;20436;-77
2021/03/05 10:44:25;;;;;;;1.47;1.43;;;;;;;2.17;77.55;101698.59;5072432;28;20474;-78
2021/03/05 10:46:51;;;;;;;2.40;2.20;;;;;;;1.92;75.65;101693.28;5072307;28;20520;-76
2021/03/05 10:49:16;;;;;;;2.33;2.00;;;;;;;1.89;75.63;101696.44;5072507;28;21004;-78
2021/03/05 10:51:42;;;;;;;1.93;1.83;;;;;;;2.11;76.53;101705.72;5072770;28;20186;-77
2021/03/05 10:54:07;;;;;;;1.97;1.87;;;;;;;2.09;75.03;101711.31;5072374;28;20178;-76
2021/03/05 10:56:34;;;;;;;1.17;1.13;;;;;;;2.09;75.62;101707.81;5072042;28;20174;-75
2021/03/05 10:59:00;;;;;;;1.53;1.33;;;;;;;1.95;75.41;101698.22;5072295;28;20631;-76
2021/03/05 11:01:25;;;;;;;1.13;1.13;;;;;;;2.18;74.15;101711.88;5070947;28;20436;-76
2021/03/05 11:03:50;;;;;;;1.73;1.63;;;;;;;2.42;74.42;101704.72;5072165;28;20174;-76
2021/03/05 11:06:16;;;;;;;1.37;1.27;;;;;;;2.67;73.18;101710.03;5070573;28;20623;-75
2021/03/05 11:08:42;;;;;;;1.93;1.50;;;;;;;2.72;72.25;101702.06;5072179;28;20186;-76
2021/03/05 11:11:07;;;;;;;1.93;1.83;;;;;;;2.94;71.94;101714.00;5072133;28;20170;-76
2021/03/05 11:13:32;;;;;;;2.07;1.93;;;;;;;2.57;71.93;101710.56;5071873;28;20520;-75
2021/03/05 11:15:58;;;;;;;3.57;3.13;;;;;;;2.81;72.90;101711.50;5072128;28;20174;-71
2021/03/05 11:18:23;;;;;;;1.53;1.43;;;;;;;2.55;69.16;101709.13;5071470;28;20293;-75
2021/03/05 11:20:48;;;;;;;1.20;1.20;;;;;;;2.73;67.85;101719.06;5071667;28;20179;-74
2021/03/05 11:23:13;;;;;;;1.40;1.00;;;;;;;3.09;68.05;101707.38;5071941;28;20174;-74
2021/03/05 11:25:39;;;;;;;1.70;1.60;;;;;;;2.84;67.78;101716.44;5071742;28;20343;-74
2021/03/05 11:28:04;;;;;;;9.37;1.37;;;;;;;2.99;67.80;101710.63;5071538;28;20207;-74
2021/03/05 11:30:30;;;;;;;1.97;1.57;;;;;;;2.98;67.74;101717.88;5071666;28;20541;-75
2021/03/05 11:32:55;;;;;;;1.90;1.80;;;;;;;2.98;67.60;101717.06;5071577;28;20254;-74
2021/03/05 11:35:21;;;;;;;1.60;1.50;;;;;;;3.44;66.22;101716.34;5071640;28;20173;-74
2021/03/05 11:37:46;;;;;;;1.20;1.20;;;;;;;3.69;66.34;101718.03;5071111;28;20476;-74